Airport View

Enter AWOS ICAO identifier for current METAR.

ex. KFNL

KFFC 191853Z AUTO 31014G21KT 10SM CLR 09/M08 A3014 RMK AO2 SLP208 T00941078

19 Jan 2020 19:59

Frequency: 118.525

Phone: 770-487-1610

Other Area AWOS: KCCO - KHMP - K6A2 - KATL

TAF AMD KATL 191955Z 1920/2024 32016G24KT P6SM SKC FM200400 32012G20KT P6SM SKC